^^
Station Historical Data
Daily Summary for February 26, 2017 Units:  English    Metric   Both
« Previous Day
Next Day »
Daily Weekly Monthly Yearly Custom
  High: Low: Average:
Temperature: 40.4 °F 28.8 °F 35.1 °F
Dew Point: 26.1 °F 17.7 °F 20.3 °F
Humidity: 68 % 43 % 55 %
Wind Speed: 16.7 mph 0.0 mph 7.1 mph
Wind Gust: 30.0 mph - -
Wind:- - WNW
Pressure: 30.29 in 29.76 in -
Precipitation: 0.00 in    
Historical Graphs
 
 
Tabular Data for February 26, 2017
Time Temperature Dew Point Pressure Wind Wind Speed Wind Gust Humidity Rainfall Rate (Hourly) solar Conditions
00:04 40.4 °F 25.9 °F 29.76 in WNW 16.0 mph 28.0 mph 56 % 0.00 in 0.0 W/m2 RA
00:09 40.2 °F 25.3 °F 29.76 in WNW 16.0 mph 30.0 mph 55 % 0.00 in 0.0 W/m2 CLR
00:14 40.0 °F 25.6 °F 29.77 in WNW 12.6 mph 17.3 mph 56 % 0.00 in 0.0 W/m2 CLR
00:19 39.9 °F 25.4 °F 29.77 in West 13.0 mph 21.0 mph 56 % 0.00 in 0.0 W/m2 CLR
00:24 39.7 °F 25.3 °F 29.77 in WNW 9.0 mph 27.0 mph 56 % 0.00 in 0.0 W/m2 CLR
00:29 39.5 °F 25.5 °F 29.77 in WNW 12.9 mph 25.0 mph 57 % 0.00 in 0.0 W/m2 CLR
00:34 39.4 °F 25.4 °F 29.77 in West 12.0 mph 25.0 mph 57 % 0.00 in 0.0 W/m2 CLR
00:39 39.2 °F 25.6 °F 29.77 in West 11.6 mph 12.7 mph 58 % 0.00 in 0.0 W/m2 CLR
00:44 39.1 °F 25.6 °F 29.78 in NW 15.9 mph 26.5 mph 58 % 0.00 in 0.0 W/m2 CLR
00:49 39.1 °F 26.0 °F 29.78 in West 12.0 mph 21.0 mph 59 % 0.00 in 0.0 W/m2 CLR
00:54 39.0 °F 25.9 °F 29.78 in West 16.0 mph 23.0 mph 59 % 0.00 in 0.0 W/m2 CLR
00:59 38.9 °F 25.8 °F 29.79 in West 12.8 mph 18.4 mph 59 % 0.00 in 0.0 W/m2 CLR
01:05 38.8 °F 26.1 °F 29.79 in West 10.8 mph 18.4 mph 60 % 0.00 in 0.0 W/m2 CLR
01:10 38.8 °F 26.1 °F 29.80 in WSW 10.5 mph 13.8 mph 60 % 0.00 in 0.0 W/m2 CLR
01:15 38.7 °F 26.0 °F 29.80 in West 7.5 mph 11.5 mph 60 % 0.00 in 0.0 W/m2 CLR
01:20 38.6 °F 25.9 °F 29.80 in West 8.8 mph 15.0 mph 60 % 0.00 in 0.0 W/m2 CLR
01:25 38.6 °F 25.9 °F 29.81 in West 7.8 mph 12.7 mph 60 % 0.00 in 0.0 W/m2 CLR
01:30 38.4 °F 25.7 °F 29.81 in West 10.3 mph 17.3 mph 60 % 0.00 in 0.0 W/m2 CLR
01:35 38.3 °F 25.6 °F 29.81 in WNW 15.6 mph 25.3 mph 60 % 0.00 in 0.0 W/m2 CLR
01:40 38.3 °F 25.2 °F 29.82 in West 13.0 mph 19.6 mph 59 % 0.00 in 0.0 W/m2 CLR
01:45 38.2 °F 25.1 °F 29.81 in WNW 9.6 mph 18.4 mph 59 % 0.00 in 0.0 W/m2 CLR
01:50 38.0 °F 24.9 °F 29.81 in West 9.2 mph 13.8 mph 59 % 0.00 in 0.0 W/m2 CLR
01:55 37.9 °F 24.8 °F 29.82 in West 8.0 mph 16.1 mph 59 % 0.00 in 0.0 W/m2 CLR
02:00 37.7 °F 25.1 °F 29.82 in West 10.5 mph 12.7 mph 60 % 0.00 in 0.0 W/m2 CLR
02:05 37.7 °F 25.1 °F 29.82 in West 12.1 mph 20.7 mph 60 % 0.00 in 0.0 W/m2 CLR
02:10 37.7 °F 25.1 °F 29.82 in West 8.1 mph 13.8 mph 60 % 0.00 in 0.0 W/m2 CLR
02:15 37.7 °F 25.1 °F 29.83 in West 13.8 mph 16.1 mph 60 % 0.00 in 0.0 W/m2 CLR
02:20 37.6 °F 24.6 °F 29.83 in West 14.0 mph 21.9 mph 59 % 0.00 in 0.0 W/m2 CLR
02:25 37.4 °F 24.4 °F 29.83 in West 13.7 mph 23.0 mph 59 % 0.00 in 0.0 W/m2 CLR
02:30 37.3 °F 24.3 °F 29.83 in WNW 14.4 mph 19.6 mph 59 % 0.00 in 0.0 W/m2 CLR
02:35 37.1 °F 23.7 °F 29.84 in West 12.6 mph 20.0 mph 58 % 0.00 in 0.0 W/m2 CLR
02:40 37.0 °F 23.6 °F 29.84 in West 11.7 mph 19.0 mph 58 % 0.00 in 0.0 W/m2 CLR
02:46 36.8 °F 23.4 °F 29.84 in WNW 9.3 mph 15.0 mph 58 % 0.00 in 0.0 W/m2 CLR
02:51 36.6 °F 22.8 °F 29.84 in West 11.5 mph 18.4 mph 57 % 0.00 in 0.0 W/m2 CLR
02:56 36.3 °F 22.1 °F 29.84 in West 11.4 mph 19.6 mph 56 % 0.00 in 0.0 W/m2 CLR
03:01 36.0 °F 21.4 °F 29.84 in WNW 11.8 mph 16.1 mph 55 % 0.00 in 0.0 W/m2 CLR
03:06 35.8 °F 21.2 °F 29.84 in WNW 11.5 mph 16.1 mph 55 % 0.00 in 0.0 W/m2 CLR
03:11 35.7 °F 21.1 °F 29.85 in WNW 13.6 mph 17.3 mph 55 % 0.00 in 0.0 W/m2 CLR
03:16 35.6 °F 20.6 °F 29.85 in WNW 11.6 mph 24.2 mph 54 % 0.00 in 0.0 W/m2 CLR
03:21 35.5 °F 20.9 °F 29.85 in WSW 10.4 mph 12.7 mph 55 % 0.00 in 0.0 W/m2 CLR
03:26 35.3 °F 20.7 °F 29.85 in West 11.6 mph 17.3 mph 55 % 0.00 in 0.0 W/m2 CLR
03:31 35.1 °F 20.5 °F 29.85 in West 8.7 mph 16.1 mph 55 % 0.00 in 0.0 W/m2 CLR
03:36 35.0 °F 20.9 °F 29.85 in West 6.7 mph 12.7 mph 56 % 0.00 in 0.0 W/m2 CLR
03:41 35.0 °F 20.9 °F 29.85 in West 10.3 mph 15.0 mph 56 % 0.00 in 0.0 W/m2 CLR
03:46 34.9 °F 21.2 °F 29.86 in WNW 9.5 mph 12.7 mph 57 % 0.00 in 0.0 W/m2 CLR
03:51 34.8 °F 21.1 °F 29.86 in West 9.8 mph 13.8 mph 57 % 0.00 in 0.0 W/m2 CLR
03:56 34.8 °F 21.1 °F 29.86 in West 5.7 mph 13.8 mph 57 % 0.00 in 0.0 W/m2 CLR
04:01 34.7 °F 21.0 °F 29.86 in NW 10.1 mph 13.8 mph 57 % 0.00 in 0.0 W/m2 CLR
04:06 34.8 °F 21.1 °F 29.86 in West 9.6 mph 13.8 mph 57 % 0.00 in 0.0 W/m2 CLR
04:11 35.0 °F 20.9 °F 29.87 in WSW 7.6 mph 16.1 mph 56 % 0.00 in 0.0 W/m2 CLR
04:16 35.1 °F 21.0 °F 29.87 in WNW 6.8 mph 16.0 mph 56 % 0.00 in 0.0 W/m2 CLR
04:21 35.2 °F 21.1 °F 29.87 in NW 9.6 mph 17.3 mph 56 % 0.00 in 0.0 W/m2 CLR
04:26 35.2 °F 21.1 °F 29.87 in WNW 9.2 mph 16.1 mph 56 % 0.00 in 0.0 W/m2 CLR
04:31 35.2 °F 21.1 °F 29.87 in WNW 5.8 mph 12.7 mph 56 % 0.00 in 0.0 W/m2 CLR
04:36 35.1 °F 21.0 °F 29.88 in West 12.2 mph 17.0 mph 56 % 0.00 in 0.0 W/m2 CLR
04:41 35.1 °F 21.0 °F 29.88 in WNW 7.6 mph 16.1 mph 56 % 0.00 in 0.0 W/m2 CLR
04:46 35.1 °F 21.4 °F 29.88 in NW 6.9 mph 9.2 mph 57 % 0.00 in 0.0 W/m2 CLR
04:51 35.0 °F 20.9 °F 29.89 in NW 11.4 mph 19.6 mph 56 % 0.00 in 0.0 W/m2 CLR
04:56 35.0 °F 20.9 °F 29.89 in WNW 9.3 mph 16.1 mph 56 % 0.00 in 0.0 W/m2 CLR
05:01 35.0 °F 20.9 °F 29.89 in WNW 7.8 mph 13.8 mph 56 % 0.00 in 0.0 W/m2 CLR
05:06 34.9 °F 21.2 °F 29.90 in NNW 11.8 mph 17.3 mph 57 % 0.00 in 0.0 W/m2 CLR
05:11 34.8 °F 20.7 °F 29.90 in WNW 16.7 mph 26.5 mph 56 % 0.00 in 0.0 W/m2 CLR
05:16 34.6 °F 20.1 °F 29.91 in WNW 12.4 mph 21.9 mph 55 % 0.00 in 0.0 W/m2 CLR
05:21 34.6 °F 20.5 °F 29.91 in NW 12.5 mph 16.1 mph 56 % 0.00 in 0.0 W/m2 CLR
05:26 34.5 °F 20.8 °F 29.91 in NW 10.9 mph 15.0 mph 57 % 0.00 in 0.0 W/m2 CLR
05:31 34.5 °F 20.8 °F 29.92 in WNW 9.9 mph 11.5 mph 57 % 0.00 in 0.0 W/m2 CLR
05:36 34.5 °F 21.2 °F 29.92 in NW 7.2 mph 13.8 mph 58 % 0.00 in 0.0 W/m2 CLR
05:41 34.5 °F 21.2 °F 29.93 in West 6.8 mph 13.8 mph 58 % 0.00 in 0.0 W/m2 CLR
05:42 34.5 °F 21.2 °F 29.93 in West 6.9 mph 11.5 mph 58 % 0.00 in 0.0 W/m2 CLR
05:47 34.4 °F 21.5 °F 29.93 in West 8.9 mph 17.3 mph 59 % 0.00 in 0.0 W/m2 CLR
05:52 34.4 °F 21.5 °F 29.93 in West 7.5 mph 12.7 mph 59 % 0.00 in 0.0 W/m2 CLR
05:57 34.4 °F 21.5 °F 29.94 in NNW 9.9 mph 16.1 mph 59 % 0.00 in 0.0 W/m2 CLR
06:02 34.3 °F 21.4 °F 29.94 in WNW 7.8 mph 19.6 mph 59 % 0.00 in 0.0 W/m2 CLR
06:07 34.2 °F 20.9 °F 29.94 in NW 10.0 mph 15.0 mph 58 % 0.00 in 0.0 W/m2 CLR
06:12 34.1 °F 20.9 °F 29.95 in NNW 9.1 mph 15.0 mph 58 % 0.00 in 0.0 W/m2 CLR
06:17 34.1 °F 20.9 °F 29.95 in WNW 11.5 mph 17.3 mph 58 % 0.00 in 0.0 W/m2 CLR
06:22 34.0 °F 20.8 °F 29.95 in WNW 4.5 mph 11.5 mph 58 % 0.00 in 0.0 W/m2 CLR
06:27 34.0 °F 21.2 °F 29.95 in NW 6.0 mph 11.5 mph 59 % 0.00 in 0.0 W/m2 CLR
06:32 34.0 °F 21.2 °F 29.95 in WNW 10.3 mph 15.0 mph 59 % 0.00 in 0.0 W/m2 CLR
06:37 33.9 °F 21.1 °F 29.96 in NW 7.3 mph 18.0 mph 59 % 0.00 in 0.0 W/m2 CLR
06:42 33.8 °F 19.7 °F 29.96 in NW 10.1 mph 19.6 mph 56 % 0.00 in 0.0 W/m2 CLR
06:47 33.7 °F 19.2 °F 29.96 in West 14.7 mph 19.6 mph 55 % 0.00 in 0.0 W/m2 CLR
06:52 33.6 °F 19.1 °F 29.97 in WNW 8.3 mph 13.8 mph 55 % 0.00 in 9.0 W/m2 CLR
06:57 33.6 °F 18.7 °F 29.97 in WNW 12.5 mph 19.6 mph 54 % 0.00 in 14.0 W/m2 CLR
07:02 33.6 °F 18.7 °F 29.97 in WNW 11.6 mph 16.0 mph 54 % 0.00 in 18.0 W/m2 CLR
07:07 33.6 °F 18.3 °F 29.98 in West 15.5 mph 19.6 mph 53 % 0.00 in 25.0 W/m2 CLR
07:12 33.6 °F 17.8 °F 29.98 in WSW 8.0 mph 16.1 mph 52 % 0.00 in 30.0 W/m2 CLR
07:17 33.6 °F 17.8 °F 29.98 in NW 15.8 mph 20.7 mph 52 % 0.00 in 28.0 W/m2 CLR
07:22 33.5 °F 17.7 °F 29.98 in WNW 11.9 mph 15.0 mph 52 % 0.00 in 35.0 W/m2 CLR
07:27 33.6 °F 18.3 °F 29.99 in NW 13.1 mph 15.0 mph 53 % 0.00 in 42.0 W/m2 FEW
07:32 33.6 °F 18.3 °F 29.99 in WNW 8.6 mph 19.0 mph 53 % 0.00 in 44.0 W/m2 SCT
07:37 33.7 °F 18.4 °F 30.00 in West 5.2 mph 10.0 mph 53 % 0.00 in 42.0 W/m2 SCT
07:42 33.6 °F 18.7 °F 30.00 in West 4.6 mph 11.5 mph 54 % 0.00 in 53.0 W/m2 SCT
07:47 33.6 °F 18.7 °F 30.01 in West 10.0 mph 11.5 mph 54 % 0.00 in 46.0 W/m2 BKN
07:52 33.5 °F 19.0 °F 30.01 in WSW 10.6 mph 15.0 mph 55 % 0.00 in 56.0 W/m2 BKN
07:57 33.5 °F 19.0 °F 30.01 in WNW 8.2 mph 12.7 mph 55 % 0.00 in 63.0 W/m2 BKN
08:02 33.4 °F 18.9 °F 30.01 in WNW 10.9 mph 13.8 mph 55 % 0.00 in 69.0 W/m2 SCT
08:07 33.4 °F 18.9 °F 30.02 in WSW 10.7 mph 13.0 mph 55 % 0.00 in 63.0 W/m2 BKN
08:12 33.4 °F 18.9 °F 30.02 in WNW 10.6 mph 19.6 mph 55 % 0.00 in 69.0 W/m2 BKN
08:17 33.3 °F 18.9 °F 30.03 in West 11.4 mph 17.3 mph 55 % 0.00 in 76.0 W/m2 BKN
08:22 33.3 °F 18.9 °F 30.03 in West 9.7 mph 12.7 mph 55 % 0.00 in 76.0 W/m2 BKN
08:27 33.2 °F 19.2 °F 30.03 in WNW 6.9 mph 12.7 mph 56 % 0.00 in 83.0 W/m2 BKN
08:32 33.2 °F 18.8 °F 30.03 in WNW 10.9 mph 15.0 mph 55 % 0.00 in 91.0 W/m2 BKN
08:37 33.1 °F 18.7 °F 30.03 in West 8.6 mph 11.5 mph 55 % 0.00 in 98.0 W/m2 BKN
08:42 33.1 °F 18.7 °F 30.03 in West 10.0 mph 16.1 mph 55 % 0.00 in 100.0 W/m2 BKN
08:47 33.2 °F 18.8 °F 30.04 in WNW 8.1 mph 11.5 mph 55 % 0.00 in 111.0 W/m2 BKN
08:52 33.3 °F 18.9 °F 30.04 in West 6.7 mph 11.5 mph 55 % 0.00 in 134.0 W/m2 BKN
08:57 33.3 °F 18.9 °F 30.04 in WNW 10.0 mph 13.8 mph 55 % 0.00 in 160.0 W/m2 SCT
09:02 33.3 °F 18.4 °F 30.04 in West 11.0 mph 13.8 mph 54 % 0.00 in 162.0 W/m2 SCT
09:07 33.4 °F 18.5 °F 30.05 in NW 9.2 mph 14.0 mph 54 % 0.00 in 142.0 W/m2 BKN
09:13 33.3 °F 18.4 °F 30.05 in West 12.9 mph 15.0 mph 54 % 0.00 in 200.0 W/m2 SCT
09:18 33.4 °F 18.5 °F 30.05 in WNW 7.3 mph 11.5 mph 54 % 0.00 in 206.0 W/m2 SCT
09:23 33.6 °F 18.7 °F 30.05 in WSW 11.8 mph 19.6 mph 54 % 0.00 in 218.0 W/m2 SCT
09:28 33.7 °F 18.4 °F 30.05 in WNW 9.9 mph 15.0 mph 53 % 0.00 in 220.0 W/m2 SCT
09:33 33.9 °F 18.6 °F 30.05 in West 8.4 mph 13.8 mph 53 % 0.00 in 316.0 W/m2 SCT
09:38 34.1 °F 18.3 °F 30.05 in WNW 9.3 mph 15.0 mph 52 % 0.00 in 269.0 W/m2 FEW
09:43 34.9 °F 19.5 °F 30.06 in WNW 6.3 mph 11.5 mph 53 % 0.00 in 306.0 W/m2 FEW
09:48 35.0 °F 18.7 °F 30.06 in NNW 10.0 mph 16.1 mph 51 % 0.00 in 237.0 W/m2 SCT
09:53 34.7 °F 17.9 °F 30.06 in West 7.2 mph 13.8 mph 50 % 0.00 in 223.0 W/m2 SCT
09:58 34.6 °F 18.3 °F 30.06 in WNW 8.6 mph 15.0 mph 51 % 0.00 in 216.0 W/m2 SCT
10:03 34.5 °F 17.8 °F 30.06 in West 11.9 mph 15.0 mph 50 % 0.00 in 229.0 W/m2 SCT
10:08 34.5 °F 18.2 °F 30.06 in WNW 5.0 mph 9.2 mph 51 % 0.00 in 241.0 W/m2 SCT
10:13 34.9 °F 18.6 °F 30.06 in West 9.2 mph 12.0 mph 51 % 0.00 in 264.0 W/m2 SCT
10:18 34.8 °F 18.0 °F 30.06 in West 9.8 mph 11.5 mph 50 % 0.00 in 237.0 W/m2 SCT
10:20 34.7 °F 18.4 °F 30.06 in NW 8.9 mph 15.0 mph 51 % 0.00 in 246.0 W/m2 SCT
10:25 34.9 °F 18.6 °F 30.07 in NW 14.5 mph 18.4 mph 51 % 0.00 in 285.0 W/m2 SCT
10:30 34.8 °F 18.5 °F 30.07 in NW 9.7 mph 13.8 mph 51 % 0.00 in 267.0 W/m2 SCT
10:35 35.3 °F 19.0 °F 30.07 in WNW 10.7 mph 14.0 mph 51 % 0.00 in 260.0 W/m2 SCT
10:40 35.2 °F 18.9 °F 30.07 in NW 7.2 mph 12.7 mph 51 % 0.00 in 265.0 W/m2 SCT
10:45 35.4 °F 19.5 °F 30.07 in NW 9.1 mph 16.1 mph 52 % 0.00 in 257.0 W/m2 BKN
10:50 35.2 °F 18.4 °F 30.08 in West 11.2 mph 18.4 mph 50 % 0.00 in 274.0 W/m2 SCT
10:55 35.3 °F 19.0 °F 30.08 in West 10.0 mph 15.0 mph 51 % 0.00 in 274.0 W/m2 SCT
11:00 35.7 °F 18.9 °F 30.08 in WNW 11.7 mph 15.0 mph 50 % 0.00 in 237.0 W/m2 BKN
11:05 35.4 °F 18.6 °F 30.08 in West 9.5 mph 15.0 mph 50 % 0.00 in 311.0 W/m2 SCT
11:10 35.4 °F 19.0 °F 30.08 in West 8.2 mph 15.0 mph 51 % 0.00 in 269.0 W/m2 SCT
11:15 35.5 °F 19.1 °F 30.08 in WSW 8.5 mph 12.7 mph 51 % 0.00 in 278.0 W/m2 BKN
11:20 35.6 °F 19.2 °F 30.08 in West 8.8 mph 13.8 mph 51 % 0.00 in 294.0 W/m2 SCT
11:25 35.8 °F 19.0 °F 30.08 in West 7.6 mph 12.7 mph 50 % 0.00 in 316.0 W/m2 SCT
11:30 35.6 °F 19.2 °F 30.09 in West 7.8 mph 17.0 mph 51 % 0.00 in 250.0 W/m2 BKN
11:35 35.2 °F 18.9 °F 30.09 in West 10.9 mph 13.8 mph 51 % 0.00 in 202.0 W/m2 BKN
11:40 35.0 °F 19.1 °F 30.09 in West 10.3 mph 17.0 mph 52 % 0.00 in 192.0 W/m2 BKN
11:45 35.2 °F 19.8 °F 30.09 in West 6.0 mph 13.0 mph 53 % 0.00 in 192.0 W/m2 BKN
11:50 35.1 °F 19.2 °F 30.09 in West 9.6 mph 11.5 mph 52 % 0.00 in 185.0 W/m2 BKN
11:55 34.8 °F 19.4 °F 30.09 in WNW 12.6 mph 16.1 mph 53 % 0.00 in 204.0 W/m2 BKN
12:00 35.0 °F 19.6 °F 30.09 in WNW 6.0 mph 12.0 mph 53 % 0.00 in 214.0 W/m2 BKN
12:05 35.3 °F 19.9 °F 30.09 in WNW 9.7 mph 13.8 mph 53 % 0.00 in 204.0 W/m2 BKN
12:10 34.9 °F 19.5 °F 30.09 in NNW 9.8 mph 12.7 mph 53 % 0.00 in 197.0 W/m2 BKN
12:15 35.2 °F 19.8 °F 30.09 in West 9.8 mph 15.0 mph 53 % 0.00 in 229.0 W/m2 BKN
12:20 35.3 °F 19.9 °F 30.09 in WNW 9.2 mph 13.8 mph 53 % 0.00 in 272.0 W/m2 BKN
12:25 35.2 °F 19.3 °F 30.09 in West 11.9 mph 17.3 mph 52 % 0.00 in 338.0 W/m2 SCT
12:30 35.7 °F 20.2 °F 30.09 in NNW 14.0 mph 16.0 mph 53 % 0.00 in 501.0 W/m2 FEW
12:35 36.2 °F 20.2 °F 30.09 in WNW 10.2 mph 18.4 mph 52 % 0.00 in 367.0 W/m2 FEW
12:40 36.5 °F 21.0 °F 30.10 in NW 12.1 mph 13.8 mph 53 % 0.00 in 392.0 W/m2 SCT
12:45 37.1 °F 22.0 °F 30.10 in NNW 10.5 mph 11.5 mph 54 % 0.00 in 410.0 W/m2 FEW
12:50 36.9 °F 21.3 °F 30.10 in WNW 12.3 mph 12.7 mph 53 % 0.00 in 415.0 W/m2 FEW
12:55 37.5 °F 21.9 °F 30.09 in WNW 5.0 mph 12.7 mph 53 % 0.00 in 840.0 W/m2 SCT
13:00 37.5 °F 20.5 °F 30.10 in West 11.4 mph 13.0 mph 50 % 0.00 in 898.0 W/m2 CLR
13:05 37.7 °F 20.7 °F 30.09 in SW 9.2 mph 13.8 mph 50 % 0.00 in 1009.0 W/m2 CLR
13:10 37.9 °F 19.9 °F 30.09 in West 12.8 mph 17.3 mph 48 % 0.00 in 425.0 W/m2 FEW
13:15 37.5 °F 20.1 °F 30.09 in West 5.1 mph 11.5 mph 49 % 0.00 in 403.0 W/m2 FEW
13:20 37.3 °F 18.9 °F 30.09 in West 8.0 mph 15.0 mph 47 % 0.00 in 429.0 W/m2 FEW
13:25 37.0 °F 18.6 °F 30.09 in WNW 13.5 mph 17.3 mph 47 % 0.00 in 343.0 W/m2 SCT
13:30 36.9 °F 19.5 °F 30.09 in West 11.5 mph 12.7 mph 49 % 0.00 in 441.0 W/m2 FEW
13:36 37.1 °F 19.2 °F 30.10 in WNW 10.6 mph 15.0 mph 48 % 0.00 in 315.0 W/m2 SCT
13:41 36.7 °F 19.3 °F 30.10 in West 10.5 mph 15.0 mph 49 % 0.00 in 803.0 W/m2 FEW
13:46 37.1 °F 20.2 °F 30.10 in West 5.2 mph 10.4 mph 50 % 0.00 in 272.0 W/m2 BKN
13:51 38.4 °F 20.9 °F 30.10 in West 11.7 mph 19.6 mph 49 % 0.00 in 858.0 W/m2 CLR
13:56 39.5 °F 19.9 °F 30.09 in West 7.9 mph 13.8 mph 45 % 0.00 in 837.0 W/m2 CLR
14:01 38.7 °F 19.2 °F 30.10 in West 11.3 mph 16.1 mph 45 % 0.00 in 309.0 W/m2 SCT
14:06 37.7 °F 19.3 °F 30.10 in WNW 3.2 mph 8.1 mph 47 % 0.00 in 311.0 W/m2 SCT
14:11 38.1 °F 19.6 °F 30.10 in WNW 6.2 mph 11.5 mph 47 % 0.00 in 250.0 W/m2 BKN
14:16 38.4 °F 19.9 °F 30.10 in NW 10.0 mph 15.0 mph 47 % 0.00 in 708.0 W/m2 FEW
14:21 39.1 °F 19.5 °F 30.09 in West 6.4 mph 10.4 mph 45 % 0.00 in 264.0 W/m2 SCT
14:26 39.4 °F 20.3 °F 30.10 in West 13.3 mph 19.6 mph 46 % 0.00 in 684.0 W/m2 CLR
14:31 40.0 °F 20.9 °F 30.10 in WNW 8.5 mph 12.7 mph 46 % 0.00 in 629.0 W/m2 CLR
14:36 39.7 °F 19.5 °F 30.09 in NW 5.1 mph 10.4 mph 44 % 0.00 in 130.0 W/m2 SCT
14:41 38.8 °F 19.8 °F 30.10 in West 7.6 mph 10.0 mph 46 % 0.00 in 550.0 W/m2 FEW
14:46 39.0 °F 19.9 °F 30.10 in West 6.5 mph 12.0 mph 46 % 0.00 in 378.0 W/m2 FEW
14:51 39.2 °F 20.6 °F 30.10 in NW 6.3 mph 12.7 mph 47 % 0.00 in 564.0 W/m2 CLR
14:56 40.4 °F 21.2 °F 30.10 in WNW 7.7 mph 11.5 mph 46 % 0.00 in 527.0 W/m2 CLR
15:01 40.1 °F 19.4 °F 30.10 in West 11.4 mph 17.3 mph 43 % 0.00 in 501.0 W/m2 CLR
15:06 39.5 °F 19.4 °F 30.10 in WSW 8.9 mph 17.3 mph 44 % 0.00 in 482.0 W/m2 CLR
15:11 39.9 °F 19.7 °F 30.11 in WNW 10.6 mph 15.0 mph 44 % 0.00 in 478.0 W/m2 CLR
15:16 40.0 °F 19.8 °F 30.11 in WNW 9.0 mph 9.2 mph 44 % 0.00 in 76.0 W/m2 CLR
15:21 39.2 °F 20.1 °F 30.12 in NW 4.3 mph 11.5 mph 46 % 0.00 in 86.0 W/m2 OVC
15:26 38.7 °F 19.7 °F 30.12 in West 8.5 mph 11.5 mph 46 % 0.00 in 230.0 W/m2 SCT
15:32 38.5 °F 19.5 °F 30.12 in NW 10.0 mph 16.1 mph 46 % 0.00 in 79.0 W/m2 OVC
15:37 38.9 °F 20.4 °F 30.12 in WNW 7.1 mph 8.1 mph 47 % 0.00 in 397.0 W/m2 CLR
15:42 38.5 °F 19.5 °F 30.12 in WNW 4.3 mph 10.4 mph 46 % 0.00 in 127.0 W/m2 BKN
15:47 38.4 °F 19.4 °F 30.12 in West 5.1 mph 9.2 mph 46 % 0.00 in 153.0 W/m2 SCT
15:52 38.6 °F 19.6 °F 30.13 in West 4.1 mph 8.1 mph 46 % 0.00 in 134.0 W/m2 BKN
15:57 38.6 °F 19.1 °F 30.13 in WNW 8.8 mph 12.0 mph 45 % 0.00 in 121.0 W/m2 BKN
16:02 38.5 °F 19.0 °F 30.13 in WNW 6.9 mph 11.5 mph 45 % 0.00 in 88.0 W/m2 BKN
16:07 38.4 °F 18.9 °F 30.13 in WNW 8.0 mph 11.5 mph 45 % 0.00 in 84.0 W/m2 BKN
16:12 38.5 °F 19.5 °F 30.13 in WNW 7.5 mph 11.5 mph 46 % 0.00 in 281.0 W/m2 FEW
16:17 38.5 °F 19.5 °F 30.14 in WNW 2.9 mph 4.6 mph 46 % 0.00 in 171.0 W/m2 FEW
16:22 38.6 °F 19.6 °F 30.14 in NW 7.7 mph 11.5 mph 46 % 0.00 in 121.0 W/m2 SCT
16:27 38.4 °F 19.4 °F 30.14 in NW 9.0 mph 12.7 mph 46 % 0.00 in 76.0 W/m2 BKN
16:32 38.0 °F 19.5 °F 30.14 in West 8.2 mph 14.0 mph 47 % 0.00 in 86.0 W/m2 BKN
16:37 38.0 °F 19.5 °F 30.15 in WNW 11.4 mph 16.1 mph 47 % 0.00 in 88.0 W/m2 SCT
16:42 38.0 °F 20.0 °F 30.15 in WNW 4.7 mph 9.2 mph 48 % 0.00 in 91.0 W/m2 SCT
16:47 38.1 °F 20.1 °F 30.15 in West 9.9 mph 13.0 mph 48 % 0.00 in 65.0 W/m2 SCT
16:52 37.8 °F 19.3 °F 30.15 in West 5.2 mph 11.0 mph 47 % 0.00 in 60.0 W/m2 SCT
16:57 37.7 °F 19.8 °F 30.15 in NNW 6.3 mph 12.0 mph 48 % 0.00 in 58.0 W/m2 SCT
17:02 37.7 °F 19.8 °F 30.16 in NW 8.2 mph 11.5 mph 48 % 0.00 in 54.0 W/m2 SCT
17:07 37.6 °F 19.7 °F 30.16 in WNW 4.3 mph 10.4 mph 48 % 0.00 in 53.0 W/m2 FEW
17:12 37.6 °F 19.7 °F 30.17 in NW 8.8 mph 11.5 mph 48 % 0.00 in 30.0 W/m2 BKN
17:17 37.3 °F 19.4 °F 30.17 in NW 6.5 mph 11.5 mph 48 % 0.00 in 35.0 W/m2 SCT
17:22 37.1 °F 19.7 °F 30.17 in NW 5.8 mph 9.2 mph 49 % 0.00 in 30.0 W/m2 SCT
17:27 37.0 °F 19.6 °F 30.17 in WNW 3.9 mph 9.2 mph 49 % 0.00 in 28.0 W/m2 FEW
17:32 36.9 °F 19.5 °F 30.17 in NW 2.8 mph 5.8 mph 49 % 0.00 in 23.0 W/m2 FEW
17:37 36.7 °F 19.8 °F 30.18 in NW 1.9 mph 3.5 mph 50 % 0.00 in 14.0 W/m2 FEW
17:42 36.4 °F 19.5 °F 30.18 in NW 3.7 mph 5.0 mph 50 % 0.00 in 11.0 W/m2 CLR
17:47 36.2 °F 19.3 °F 30.18 in NW 1.9 mph 3.5 mph 50 % 0.00 in 7.0 W/m2 CLR
17:52 35.9 °F 19.5 °F 30.19 in NW 1.6 mph 3.5 mph 51 % 0.00 in 0.0 W/m2 CLR
17:57 35.8 °F 19.4 °F 30.19 in West 3.0 mph 4.0 mph 51 % 0.00 in 0.0 W/m2 CLR
18:02 36.0 °F 19.1 °F 30.19 in WNW 2.9 mph 3.5 mph 50 % 0.00 in 0.0 W/m2 CLR
18:07 36.1 °F 19.2 °F 30.20 in WNW 1.3 mph 5.8 mph 50 % 0.00 in 0.0 W/m2 CLR
18:12 35.8 °F 19.0 °F 30.20 in WNW 2.8 mph 4.6 mph 50 % 0.00 in 0.0 W/m2 CLR
18:17 35.5 °F 19.1 °F 30.20 in WNW 4.3 mph 6.9 mph 51 % 0.00 in 0.0 W/m2 CLR
18:22 35.3 °F 19.0 °F 30.20 in WNW 2.0 mph 4.0 mph 51 % 0.00 in 0.0 W/m2 CLR
18:27 35.1 °F 19.2 °F 30.21 in WNW 1.9 mph 3.5 mph 52 % 0.00 in 0.0 W/m2 CLR
18:32 35.1 °F 19.2 °F 30.21 in Calm   1.2 mph 52 % 0.00 in 0.0 W/m2 CLR
18:37 34.8 °F 18.9 °F 30.21 in Calm   1.2 mph 52 % 0.00 in 0.0 W/m2 CLR
18:42 34.6 °F 19.2 °F 30.21 in Calm     53 % 0.00 in 0.0 W/m2 CLR
18:43 34.6 °F 19.2 °F 30.22 in Calm     53 % 0.00 in 0.0 W/m2 CLR
18:48 34.4 °F 19.5 °F 30.22 in Calm     54 % 0.00 in 0.0 W/m2 CLR
18:53 34.4 °F 19.5 °F 30.22 in Calm     54 % 0.00 in 0.0 W/m2 CLR
18:59 34.3 °F 19.4 °F 30.22 in Calm     54 % 0.00 in 0.0 W/m2 CLR
19:04 34.0 °F 19.5 °F 30.22 in Calm     55 % 0.00 in 0.0 W/m2 CLR
19:09 33.8 °F 19.3 °F 30.23 in Calm     55 % 0.00 in 0.0 W/m2 CLR
19:14 33.7 °F 19.7 °F 30.23 in Calm     56 % 0.00 in 0.0 W/m2 CLR
19:19 33.6 °F 19.6 °F 30.23 in Calm     56 % 0.00 in 0.0 W/m2 CLR
19:24 33.5 °F 19.9 °F 30.23 in Calm     57 % 0.00 in 0.0 W/m2 CLR
19:29 33.3 °F 19.3 °F 30.23 in Calm     56 % 0.00 in 0.0 W/m2 CLR
19:34 33.0 °F 19.4 °F 30.23 in Calm     57 % 0.00 in 0.0 W/m2 CLR
19:39 32.7 °F 19.5 °F 30.23 in Calm     58 % 0.00 in 0.0 W/m2 CLR
19:44 32.6 °F 19.8 °F 30.23 in Calm     59 % 0.00 in 0.0 W/m2 CLR
19:49 32.2 °F 19.9 °F 30.23 in Calm     60 % 0.00 in 0.0 W/m2 CLR
19:54 32.0 °F 20.1 °F 30.23 in Calm     61 % 0.00 in 0.0 W/m2 CLR
19:59 31.9 °F 20.0 °F 30.24 in Calm     61 % 0.00 in 0.0 W/m2 CLR
20:04 31.7 °F 20.2 °F 30.24 in Calm     62 % 0.00 in 0.0 W/m2 CLR
20:09 31.6 °F 20.1 °F 30.24 in Calm     62 % 0.00 in 0.0 W/m2 CLR
20:14 31.7 °F 20.2 °F 30.25 in Calm     62 % 0.00 in 0.0 W/m2 CLR
20:19 31.6 °F 20.1 °F 30.25 in Calm   1.2 mph 62 % 0.00 in 0.0 W/m2 CLR
20:24 31.6 °F 20.1 °F 30.25 in Calm     62 % 0.00 in 0.0 W/m2 CLR
20:29 31.6 °F 20.1 °F 30.25 in WNW 1.6 mph 3.5 mph 62 % 0.00 in 0.0 W/m2 CLR
20:34 31.7 °F 19.8 °F 30.25 in Calm   3.5 mph 61 % 0.00 in 0.0 W/m2 CLR
20:39 31.4 °F 19.9 °F 30.25 in Calm     62 % 0.00 in 0.0 W/m2 CLR
20:44 31.0 °F 19.9 °F 30.26 in Calm     63 % 0.00 in 0.0 W/m2 CLR
20:49 30.9 °F 19.8 °F 30.26 in Calm     63 % 0.00 in 0.0 W/m2 CLR
20:54 31.0 °F 19.9 °F 30.26 in Calm   1.2 mph 63 % 0.00 in 0.0 W/m2 CLR
20:59 31.1 °F 20.0 °F 30.26 in Calm     63 % 0.00 in 0.0 W/m2 CLR
21:04 31.1 °F 19.6 °F 30.26 in Calm     62 % 0.00 in 0.0 W/m2 CLR
21:09 31.2 °F 19.7 °F 30.27 in Calm     62 % 0.00 in 0.0 W/m2 CLR
21:14 31.0 °F 19.9 °F 30.27 in Calm     63 % 0.00 in 0.0 W/m2 CLR
21:19 30.7 °F 19.6 °F 30.27 in Calm     63 % 0.00 in 0.0 W/m2 CLR
21:24 30.5 °F 19.8 °F 30.27 in WNW 2.6 mph 3.5 mph 64 % 0.00 in 0.0 W/m2 CLR
21:29 30.6 °F 19.9 °F 30.27 in West 0.6 mph 2.3 mph 64 % 0.00 in 0.0 W/m2 CLR
21:34 30.4 °F 19.7 °F 30.28 in Calm   1.0 mph 64 % 0.00 in 0.0 W/m2 CLR
21:39 30.4 °F 19.7 °F 30.27 in West 0.6 mph 2.0 mph 64 % 0.00 in 0.0 W/m2 CLR
21:44 30.6 °F 19.5 °F 30.27 in West 0.9 mph 3.5 mph 63 % 0.00 in 0.0 W/m2 CLR
21:45 30.7 °F 19.6 °F 30.27 in West 0.4 mph 3.5 mph 63 % 0.00 in 0.0 W/m2 CLR
21:50 30.6 °F 19.5 °F 30.28 in Calm     63 % 0.00 in 0.0 W/m2 CLR
21:55 30.4 °F 19.3 °F 30.28 in West 0.3 mph   63 % 0.00 in 0.0 W/m2 CLR
22:00 30.4 °F 19.3 °F 30.28 in West 0.3 mph 1.2 mph 63 % 0.00 in 0.0 W/m2 CLR
22:05 30.4 °F 19.3 °F 30.28 in Calm     63 % 0.00 in 0.0 W/m2 CLR
22:10 30.4 °F 18.9 °F 30.28 in Calm     62 % 0.00 in 0.0 W/m2 CLR
22:15 30.2 °F 19.1 °F 30.28 in Calm     63 % 0.00 in 0.0 W/m2 CLR
22:20 30.1 °F 19.0 °F 30.28 in Calm     63 % 0.00 in 0.0 W/m2 CLR
22:25 30.2 °F 19.1 °F 30.28 in West 0.8 mph 2.3 mph 63 % 0.00 in 0.0 W/m2 CLR
22:30 30.1 °F 19.0 °F 30.28 in Calm   1.2 mph 63 % 0.00 in 0.0 W/m2 CLR
22:35 30.1 °F 19.0 °F 30.28 in Calm   1.2 mph 63 % 0.00 in 0.0 W/m2 CLR
22:40 30.1 °F 19.0 °F 30.28 in Calm     63 % 0.00 in 0.0 W/m2 CLR
22:46 30.1 °F 19.0 °F 30.29 in Calm     63 % 0.00 in 0.0 W/m2 CLR
22:51 30.0 °F 18.9 °F 30.29 in Calm     63 % 0.00 in 0.0 W/m2 CLR
22:56 30.0 °F 18.9 °F 30.28 in Calm     63 % 0.00 in 0.0 W/m2 CLR
23:01 30.0 °F 18.9 °F 30.28 in Calm     63 % 0.00 in 0.0 W/m2 CLR
23:06 30.1 °F 19.0 °F 30.29 in Calm     63 % 0.00 in 0.0 W/m2 CLR
23:11 30.1 °F 19.4 °F 30.29 in Calm     64 % 0.00 in 0.0 W/m2 CLR
23:16 30.0 °F 19.3 °F 30.28 in Calm     64 % 0.00 in 0.0 W/m2 CLR
23:21 29.8 °F 19.1 °F 30.29 in Calm     64 % 0.00 in 0.0 W/m2 CLR
23:26 29.7 °F 19.4 °F 30.29 in Calm     65 % 0.00 in 0.0 W/m2 CLR
23:31 29.6 °F 19.3 °F 30.28 in Calm     65 % 0.00 in 0.0 W/m2 CLR
23:36 29.4 °F 19.1 °F 30.28 in Calm     65 % 0.00 in 0.0 W/m2 CLR
23:41 29.4 °F 19.4 °F 30.28 in Calm     66 % 0.00 in 0.0 W/m2 CLR
23:46 29.0 °F 19.4 °F 30.28 in Calm     67 % 0.00 in 0.0 W/m2 CLR
23:51 28.8 °F 19.6 °F 30.28 in Calm     68 % 0.00 in 0.0 W/m2 CLR
23:56 28.8 °F 19.6 °F 30.29 in Calm     68 % 0.00 in 0.0 W/m2 CLR
Air Products Campus Weather
Compliments of Weather Underground - 3.5 mb